sensor_id;sensor_type;location;lat;lon;timestamp;pressure;altitude;pressure_sealevel;temperature;humidity
70976;BME280;58635;51.198;6.010;2022-07-10T00:00:30;102570.38;;;20.21;47.00
70976;BME280;58635;51.198;6.010;2022-07-10T00:02:56;102571.09;;;20.10;47.09
70976;BME280;58635;51.198;6.010;2022-07-10T00:05:23;102575.81;;;20.01;47.41
70976;BME280;58635;51.198;6.010;2022-07-10T00:07:50;102578.69;;;19.93;47.48
70976;BME280;58635;51.198;6.010;2022-07-10T00:10:17;102584.19;;;19.85;47.83
70976;BME280;58635;51.198;6.010;2022-07-10T00:12:44;102578.75;;;19.80;47.64
70976;BME280;58635;51.198;6.010;2022-07-10T00:15:09;102577.97;;;19.79;47.79
70976;BME280;58635;51.198;6.010;2022-07-10T00:17:35;102586.22;;;19.76;47.88
70976;BME280;58635;51.198;6.010;2022-07-10T00:20:02;102581.59;;;19.78;47.94
70976;BME280;58635;51.198;6.010;2022-07-10T00:22:28;102574.31;;;19.80;48.30
70976;BME280;58635;51.198;6.010;2022-07-10T00:24:53;102571.63;;;19.87;48.19
70976;BME280;58635;51.198;6.010;2022-07-10T00:27:19;102564.09;;;19.97;48.08
70976;BME280;58635;51.198;6.010;2022-07-10T00:29:45;102557.56;;;20.06;47.89
70976;BME280;58635;51.198;6.010;2022-07-10T00:32:10;102555.50;;;20.15;47.50
70976;BME280;58635;51.198;6.010;2022-07-10T00:34:36;102566.53;;;20.24;47.33
70976;BME280;58635;51.198;6.010;2022-07-10T00:37:03;102558.25;;;20.27;47.17
70976;BME280;58635;51.198;6.010;2022-07-10T00:39:28;102561.50;;;20.22;47.13
70976;BME280;58635;51.198;6.010;2022-07-10T00:41:54;102567.97;;;20.20;47.60
70976;BME280;58635;51.198;6.010;2022-07-10T00:44:19;102560.09;;;20.20;47.41
70976;BME280;58635;51.198;6.010;2022-07-10T00:46:45;102560.31;;;20.18;47.45
70976;BME280;58635;51.198;6.010;2022-07-10T00:49:10;102555.06;;;20.18;47.28
70976;BME280;58635;51.198;6.010;2022-07-10T00:51:36;102558.50;;;20.19;47.40
70976;BME280;58635;51.198;6.010;2022-07-10T00:54:03;102553.91;;;20.14;47.12
70976;BME280;58635;51.198;6.010;2022-07-10T00:56:31;102554.28;;;20.11;47.32
70976;BME280;58635;51.198;6.010;2022-07-10T00:58:56;102549.25;;;20.09;47.34
70976;BME280;58635;51.198;6.010;2022-07-10T01:01:22;102538.63;;;19.98;47.61
70976;BME280;58635;51.198;6.010;2022-07-10T01:03:48;102539.88;;;19.95;47.33
70976;BME280;58635;51.198;6.010;2022-07-10T01:06:14;102538.84;;;19.96;47.73
70976;BME280;58635;51.198;6.010;2022-07-10T01:08:40;102537.84;;;19.97;47.68
70976;BME280;58635;51.198;6.010;2022-07-10T01:11:06;102534.41;;;19.97;47.38
70976;BME280;58635;51.198;6.010;2022-07-10T01:13:32;102537.47;;;19.94;47.77
70976;BME280;58635;51.198;6.010;2022-07-10T01:15:58;102536.06;;;19.91;47.90
70976;BME280;58635;51.198;6.010;2022-07-10T01:18:25;102536.44;;;19.95;47.83
70976;BME280;58635;51.198;6.010;2022-07-10T01:20:52;102535.22;;;19.97;47.66
70976;BME280;58635;51.198;6.010;2022-07-10T01:23:17;102533.81;;;19.95;47.84
70976;BME280;58635;51.198;6.010;2022-07-10T01:25:42;102529.81;;;19.92;47.63
70976;BME280;58635;51.198;6.010;2022-07-10T01:28:08;102536.06;;;19.91;47.70
70976;BME280;58635;51.198;6.010;2022-07-10T01:30:33;102524.16;;;19.89;48.16
70976;BME280;58635;51.198;6.010;2022-07-10T01:32:59;102527.28;;;19.79;48.27
70976;BME280;58635;51.198;6.010;2022-07-10T01:35:24;102520.44;;;19.71;48.10
70976;BME280;58635;51.198;6.010;2022-07-10T01:37:50;102515.84;;;19.67;48.31
70976;BME280;58635;51.198;6.010;2022-07-10T01:40:15;102511.59;;;19.66;48.72
70976;BME280;58635;51.198;6.010;2022-07-10T01:42:40;102513.63;;;19.64;48.37
70976;BME280;58635;51.198;6.010;2022-07-10T01:45:10;102509.38;;;19.63;48.71
70976;BME280;58635;51.198;6.010;2022-07-10T01:47:36;102506.75;;;19.63;48.56
70976;BME280;58635;51.198;6.010;2022-07-10T01:50:02;102505.34;;;19.67;48.42
70976;BME280;58635;51.198;6.010;2022-07-10T01:52:28;102507.97;;;19.67;48.76
70976;BME280;58635;51.198;6.010;2022-07-10T01:54:54;102508.16;;;19.65;48.59
70976;BME280;58635;51.198;6.010;2022-07-10T01:57:19;102495.03;;;19.65;48.76
70976;BME280;58635;51.198;6.010;2022-07-10T01:59:44;102507.97;;;19.67;48.91
70976;BME280;58635;51.198;6.010;2022-07-10T02:02:10;102500.09;;;19.67;48.92
70976;BME280;58635;51.198;6.010;2022-07-10T02:04:35;102498.84;;;19.69;48.65
70976;BME280;58635;51.198;6.010;2022-07-10T02:07:15;102499.66;;;19.70;48.95
70976;BME280;58635;51.198;6.010;2022-07-10T02:09:42;102500.88;;;19.67;48.74
70976;BME280;58635;51.198;6.010;2022-07-10T02:12:09;102490.00;;;19.64;48.97
70976;BME280;58635;51.198;6.010;2022-07-10T02:14:35;102488.22;;;19.58;48.81
70976;BME280;58635;51.198;6.010;2022-07-10T02:17:01;102488.28;;;19.44;48.88
70976;BME280;58635;51.198;6.010;2022-07-10T02:19:26;102484.28;;;19.35;49.50
70976;BME280;58635;51.198;6.010;2022-07-10T02:21:52;102484.31;;;19.28;49.67
70976;BME280;58635;51.198;6.010;2022-07-10T02:24:18;102492.16;;;19.28;49.38
70976;BME280;58635;51.198;6.010;2022-07-10T02:26:43;102496.41;;;19.29;49.32
70976;BME280;58635;51.198;6.010;2022-07-10T02:29:09;102493.78;;;19.29;49.43
70976;BME280;58635;51.198;6.010;2022-07-10T02:31:34;102491.56;;;19.33;49.87
70976;BME280;58635;51.198;6.010;2022-07-10T02:34:05;102491.34;;;19.35;49.64
70976;BME280;58635;51.198;6.010;2022-07-10T02:36:30;102486.13;;;19.28;49.79
70976;BME280;58635;51.198;6.010;2022-07-10T02:38:56;102485.38;;;19.21;50.16
70976;BME280;58635;51.198;6.010;2022-07-10T02:41:21;102497.91;;;19.19;50.09
70976;BME280;58635;51.198;6.010;2022-07-10T02:43:47;102488.59;;;19.16;50.13
70976;BME280;58635;51.198;6.010;2022-07-10T02:46:12;102493.44;;;19.19;50.03
70976;BME280;58635;51.198;6.010;2022-07-10T02:48:37;102477.91;;;19.18;49.76
70976;BME280;58635;51.198;6.010;2022-07-10T02:51:03;102487.59;;;19.17;50.09
70976;BME280;58635;51.198;6.010;2022-07-10T02:53:28;102482.16;;;19.12;50.20
70976;BME280;58635;51.198;6.010;2022-07-10T02:55:54;102492.88;;;19.11;50.08
70976;BME280;58635;51.198;6.010;2022-07-10T02:58:19;102492.66;;;19.12;50.09
70976;BME280;58635;51.198;6.010;2022-07-10T03:00:45;102478.53;;;19.13;50.07
70976;BME280;58635;51.198;6.010;2022-07-10T03:03:10;102482.56;;;19.16;49.87
70976;BME280;58635;51.198;6.010;2022-07-10T03:05:36;102482.34;;;19.17;50.04
70976;BME280;58635;51.198;6.010;2022-07-10T03:08:01;102488.22;;;19.19;50.08
70976;BME280;58635;51.198;6.010;2022-07-10T03:10:27;102485.59;;;19.19;50.07
70976;BME280;58635;51.198;6.010;2022-07-10T03:12:52;102482.97;;;19.19;50.05
70976;BME280;58635;51.198;6.010;2022-07-10T03:15:17;102482.97;;;19.19;50.09
70976;BME280;58635;51.198;6.010;2022-07-10T03:17:43;102483.13;;;19.18;49.65
70976;BME280;58635;51.198;6.010;2022-07-10T03:20:09;102489.41;;;19.17;49.74
70976;BME280;58635;51.198;6.010;2022-07-10T03:22:35;102488.81;;;19.15;49.78
70976;BME280;58635;51.198;6.010;2022-07-10T03:25:01;102488.44;;;19.11;50.03
70976;BME280;58635;51.198;6.010;2022-07-10T03:27:26;102485.81;;;19.11;50.24
70976;BME280;58635;51.198;6.010;2022-07-10T03:29:52;102480.34;;;19.13;49.90
70976;BME280;58635;51.198;6.010;2022-07-10T03:32:17;102486.19;;;19.15;49.94
70976;BME280;58635;51.198;6.010;2022-07-10T03:34:42;102483.34;;;19.16;49.83
70976;BME280;58635;51.198;6.010;2022-07-10T03:37:08;102477.09;;;19.17;50.28
70976;BME280;58635;51.198;6.010;2022-07-10T03:39:33;102480.13;;;19.14;49.94
70976;BME280;58635;51.198;6.010;2022-07-10T03:41:59;102476.72;;;19.14;49.98
70976;BME280;58635;51.198;6.010;2022-07-10T03:44:24;102478.09;;;19.16;50.18
70976;BME280;58635;51.198;6.010;2022-07-10T03:46:50;102483.97;;;19.18;50.09
70976;BME280;58635;51.198;6.010;2022-07-10T03:49:15;102482.16;;;19.19;50.20
70976;BME280;58635;51.198;6.010;2022-07-10T03:51:41;102480.13;;;19.21;50.08
70976;BME280;58635;51.198;6.010;2022-07-10T03:54:06;102482.31;;;19.24;50.00
70976;BME280;58635;51.198;6.010;2022-07-10T03:56:32;102481.88;;;19.27;50.12
70976;BME280;58635;51.198;6.010;2022-07-10T03:59:15;102481.69;;;19.28;50.04
70976;BME280;58635;51.198;6.010;2022-07-10T04:01:41;102483.91;;;19.32;50.02
70976;BME280;58635;51.198;6.010;2022-07-10T04:04:06;102483.09;;;19.31;50.03
70976;BME280;58635;51.198;6.010;2022-07-10T04:06:31;102485.50;;;19.33;50.15
70976;BME280;58635;51.198;6.010;2022-07-10T04:08:57;102478.88;;;19.30;49.70
70976;BME280;58635;51.198;6.010;2022-07-10T04:11:22;102481.50;;;19.30;49.66
70976;BME280;58635;51.198;6.010;2022-07-10T04:13:48;102478.25;;;19.28;49.87
70976;BME280;58635;51.198;6.010;2022-07-10T04:16:13;102485.97;;;19.23;50.17
70976;BME280;58635;51.198;6.010;2022-07-10T04:18:39;102485.16;;;19.22;50.16
70976;BME280;58635;51.198;6.010;2022-07-10T04:21:05;102477.28;;;19.22;49.94
70976;BME280;58635;51.198;6.010;2022-07-10T04:23:32;102486.75;;;19.23;50.15
70976;BME280;58635;51.198;6.010;2022-07-10T04:25:57;102485.75;;;19.24;50.01
70976;BME280;58635;51.198;6.010;2022-07-10T04:28:23;102485.75;;;19.24;50.14
70976;BME280;58635;51.198;6.010;2022-07-10T04:30:48;102484.94;;;19.24;50.20
70976;BME280;58635;51.198;6.010;2022-07-10T04:33:14;102493.78;;;19.29;50.05
70976;BME280;58635;51.198;6.010;2022-07-10T04:35:39;102482.09;;;19.32;49.98
70976;BME280;58635;51.198;6.010;2022-07-10T04:38:04;102481.88;;;19.34;50.29
70976;BME280;58635;51.198;6.010;2022-07-10T04:40:30;102480.63;;;19.36;50.03
70976;BME280;58635;51.198;6.010;2022-07-10T04:42:55;102473.16;;;19.40;50.30
70976;BME280;58635;51.198;6.010;2022-07-10T04:45:20;102473.34;;;19.45;50.30
70976;BME280;58635;51.198;6.010;2022-07-10T04:47:46;102470.66;;;19.51;50.17
70976;BME280;58635;51.198;6.010;2022-07-10T04:50:11;102470.06;;;19.56;49.86
70976;BME280;58635;51.198;6.010;2022-07-10T04:52:37;102467.81;;;19.60;49.98
70976;BME280;58635;51.198;6.010;2022-07-10T04:55:02;102467.97;;;19.65;49.66
70976;BME280;58635;51.198;6.010;2022-07-10T04:57:27;102475.44;;;19.68;49.74
70976;BME280;58635;51.198;6.010;2022-07-10T04:59:53;102479.47;;;19.70;49.81
70976;BME280;58635;51.198;6.010;2022-07-10T05:02:18;102478.22;;;19.73;49.67
70976;BME280;58635;51.198;6.010;2022-07-10T05:04:44;102481.88;;;19.72;49.73
70976;BME280;58635;51.198;6.010;2022-07-10T05:07:09;102479.47;;;19.70;49.88
70976;BME280;58635;51.198;6.010;2022-07-10T05:09:34;102481.28;;;19.70;49.98
70976;BME280;58635;51.198;6.010;2022-07-10T05:12:00;102483.13;;;19.63;50.11
70976;BME280;58635;51.198;6.010;2022-07-10T05:14:25;102487.03;;;19.47;50.34
70976;BME280;58635;51.198;6.010;2022-07-10T05:16:50;102485.25;;;19.41;50.89
70976;BME280;58635;51.198;6.010;2022-07-10T05:19:16;102496.34;;;19.43;50.59
70976;BME280;58635;51.198;6.010;2022-07-10T05:21:41;102494.69;;;19.48;50.64
70976;BME280;58635;51.198;6.010;2022-07-10T05:24:07;102490.03;;;19.57;50.65
70976;BME280;58635;51.198;6.010;2022-07-10T05:26:32;102489.41;;;19.62;50.54
70976;BME280;58635;51.198;6.010;2022-07-10T05:28:57;102498.47;;;19.66;50.57
70976;BME280;58635;51.198;6.010;2022-07-10T05:31:23;102491.78;;;19.70;50.30
70976;BME280;58635;51.198;6.010;2022-07-10T05:33:48;102496.81;;;19.71;50.54
70976;BME280;58635;51.198;6.010;2022-07-10T05:36:13;102496.81;;;19.71;50.42
70976;BME280;58635;51.198;6.010;2022-07-10T05:38:39;102501.63;;;19.74;50.06
70976;BME280;58635;51.198;6.010;2022-07-10T05:41:04;102502.88;;;19.72;50.22
70976;BME280;58635;51.198;6.010;2022-07-10T05:43:29;102505.50;;;19.72;50.31
70976;BME280;58635;51.198;6.010;2022-07-10T05:45:55;102502.66;;;19.73;50.64
70976;BME280;58635;51.198;6.010;2022-07-10T05:48:20;102506.09;;;19.74;50.35
70976;BME280;58635;51.198;6.010;2022-07-10T05:50:46;102498.59;;;19.77;50.27
70976;BME280;58635;51.198;6.010;2022-07-10T05:53:11;102507.44;;;19.83;50.54
70976;BME280;58635;51.198;6.010;2022-07-10T05:55:37;102508.22;;;19.90;50.31
70976;BME280;58635;51.198;6.010;2022-07-10T05:58:02;102504.72;;;19.96;50.07
70976;BME280;58635;51.198;6.010;2022-07-10T06:00:27;102511.31;;;20.05;49.79
70976;BME280;58635;51.198;6.010;2022-07-10T06:02:53;102514.69;;;20.12;50.21
70976;BME280;58635;51.198;6.010;2022-07-10T06:05:18;102511.41;;;20.17;49.99
70976;BME280;58635;51.198;6.010;2022-07-10T06:07:44;102502.88;;;20.22;49.86
70976;BME280;58635;51.198;6.010;2022-07-10T06:10:09;102498.38;;;20.29;49.79
70976;BME280;58635;51.198;6.010;2022-07-10T06:12:35;102497.50;;;20.35;49.40
70976;BME280;58635;51.198;6.010;2022-07-10T06:15:02;102498.06;;;20.43;49.42
70976;BME280;58635;51.198;6.010;2022-07-10T06:17:28;102495.38;;;20.50;49.27
70976;BME280;58635;51.198;6.010;2022-07-10T06:19:53;102498.50;;;20.59;49.18
70976;BME280;58635;51.198;6.010;2022-07-10T06:22:19;102494.75;;;20.73;48.94
70976;BME280;58635;51.198;6.010;2022-07-10T06:24:58;102496.84;;;20.83;48.83
70976;BME280;58635;51.198;6.010;2022-07-10T06:27:24;102507.75;;;20.86;48.73
70976;BME280;58635;51.198;6.010;2022-07-10T06:29:49;102499.53;;;20.94;48.37
70976;BME280;58635;51.198;6.010;2022-07-10T06:32:15;102497.63;;;21.01;48.34
70976;BME280;58635;51.198;6.010;2022-07-10T06:34:40;102498.22;;;21.03;48.19
70976;BME280;58635;51.198;6.010;2022-07-10T06:37:06;102493.53;;;21.06;47.72
70976;BME280;58635;51.198;6.010;2022-07-10T06:39:33;102491.63;;;21.13;47.41
70976;BME280;58635;51.198;6.010;2022-07-10T06:42:05;102494.78;;;21.21;47.50
70976;BME280;58635;51.198;6.010;2022-07-10T06:44:31;102500.84;;;21.22;47.40
70976;BME280;58635;51.198;6.010;2022-07-10T06:46:57;102501.63;;;21.22;47.65
70976;BME280;58635;51.198;6.010;2022-07-10T06:49:42;102506.47;;;21.25;47.62
70976;BME280;58635;51.198;6.010;2022-07-10T06:52:08;102511.50;;;21.27;47.51
70976;BME280;58635;51.198;6.010;2022-07-10T06:54:34;102511.44;;;21.34;47.42
70976;BME280;58635;51.198;6.010;2022-07-10T06:57:00;102509.72;;;21.39;47.41
70976;BME280;58635;51.198;6.010;2022-07-10T06:59:26;102516.75;;;21.45;47.26
70976;BME280;58635;51.198;6.010;2022-07-10T07:01:52;102515.56;;;21.41;47.13
70976;BME280;58635;51.198;6.010;2022-07-10T07:04:18;102512.25;;;21.34;47.10
70976;BME280;58635;51.198;6.010;2022-07-10T07:06:43;102515.38;;;21.24;47.13
70976;BME280;58635;51.198;6.010;2022-07-10T07:09:08;102508.09;;;21.26;47.29
70976;BME280;58635;51.198;6.010;2022-07-10T07:11:34;102514.88;;;21.34;47.38
70976;BME280;58635;51.198;6.010;2022-07-10T07:13:59;102513.16;;;21.40;47.08
70976;BME280;58635;51.198;6.010;2022-07-10T07:16:24;102512.28;;;21.46;46.95
70976;BME280;58635;51.198;6.010;2022-07-10T07:19:03;102513.59;;;21.55;46.78
70976;BME280;58635;51.198;6.010;2022-07-10T07:21:30;102516.25;;;21.67;46.46
70976;BME280;58635;51.198;6.010;2022-07-10T07:24:15;102511.81;;;21.79;46.39
70976;BME280;58635;51.198;6.010;2022-07-10T07:26:40;102518.72;;;21.92;46.11
70976;BME280;58635;51.198;6.010;2022-07-10T07:29:06;102515.84;;;22.05;45.94
70976;BME280;58635;51.198;6.010;2022-07-10T07:31:31;102519.34;;;22.17;45.56
70976;BME280;58635;51.198;6.010;2022-07-10T07:33:57;102514.16;;;22.22;45.39
70976;BME280;58635;51.198;6.010;2022-07-10T07:36:23;102520.00;;;22.24;45.51
70976;BME280;58635;51.198;6.010;2022-07-10T07:38:48;102515.34;;;22.26;45.28
70976;BME280;58635;51.198;6.010;2022-07-10T07:41:14;102510.88;;;22.27;45.11
70976;BME280;58635;51.198;6.010;2022-07-10T07:43:40;102514.28;;;22.27;45.06
70976;BME280;58635;51.198;6.010;2022-07-10T07:46:06;102519.09;;;22.30;45.02
70976;BME280;58635;51.198;6.010;2022-07-10T07:48:31;102513.59;;;22.32;45.12
70976;BME280;58635;51.198;6.010;2022-07-10T07:50:57;102515.78;;;22.35;44.89
70976;BME280;58635;51.198;6.010;2022-07-10T07:53:22;102517.03;;;22.44;45.03
70976;BME280;58635;51.198;6.010;2022-07-10T07:55:47;102507.38;;;22.61;44.63
70976;BME280;58635;51.198;6.010;2022-07-10T07:58:13;102505.63;;;22.79;44.50
70976;BME280;58635;51.198;6.010;2022-07-10T08:00:39;102508.84;;;22.92;44.03
70976;BME280;58635;51.198;6.010;2022-07-10T08:03:04;102512.16;;;22.99;44.02
70976;BME280;58635;51.198;6.010;2022-07-10T08:05:29;102508.47;;;23.00;44.04
70976;BME280;58635;51.198;6.010;2022-07-10T08:07:57;102513.19;;;22.98;43.65
70976;BME280;58635;51.198;6.010;2022-07-10T08:10:25;102515.59;;;23.00;44.05
70976;BME280;58635;51.198;6.010;2022-07-10T08:12:52;102511.34;;;22.99;43.84
70976;BME280;58635;51.198;6.010;2022-07-10T08:15:19;102513.53;;;23.02;43.90
70976;BME280;58635;51.198;6.010;2022-07-10T08:17:51;102500.28;;;23.14;43.85
70976;BME280;58635;51.198;6.010;2022-07-10T08:20:16;102504.72;;;23.25;43.42
70976;BME280;58635;51.198;6.010;2022-07-10T08:22:43;102497.66;;;23.30;43.43
70976;BME280;58635;51.198;6.010;2022-07-10T08:25:09;102507.13;;;23.26;43.64
70976;BME280;58635;51.198;6.010;2022-07-10T08:27:34;102500.03;;;23.15;43.54
70976;BME280;58635;51.198;6.010;2022-07-10T08:30:00;102498.81;;;23.06;43.75
70976;BME280;58635;51.198;6.010;2022-07-10T08:32:26;102499.53;;;23.01;43.80
70976;BME280;58635;51.198;6.010;2022-07-10T08:34:52;102499.53;;;23.01;43.96
70976;BME280;58635;51.198;6.010;2022-07-10T08:37:18;102500.81;;;22.99;43.94
70976;BME280;58635;51.198;6.010;2022-07-10T08:39:45;102498.41;;;22.97;44.13
70976;BME280;58635;51.198;6.010;2022-07-10T08:42:11;102500.25;;;22.97;43.86
70976;BME280;58635;51.198;6.010;2022-07-10T08:44:37;102503.88;;;22.96;44.10
70976;BME280;58635;51.198;6.010;2022-07-10T08:47:04;102500.13;;;22.92;44.20
70976;BME280;58635;51.198;6.010;2022-07-10T08:49:30;102507.16;;;22.86;44.34
70976;BME280;58635;51.198;6.010;2022-07-10T08:53:12;102506.44;;;22.79;44.34
70976;BME280;58635;51.198;6.010;2022-07-10T08:55:06;102499.66;;;22.71;44.19
70976;BME280;58635;51.198;6.010;2022-07-10T08:57:32;102501.19;;;22.67;44.46
70976;BME280;58635;51.198;6.010;2022-07-10T08:59:59;102500.84;;;22.64;44.70
70976;BME280;58635;51.198;6.010;2022-07-10T09:02:25;102504.06;;;22.66;44.85
70976;BME280;58635;51.198;6.010;2022-07-10T09:04:50;102497.63;;;22.73;44.57
70976;BME280;58635;51.198;6.010;2022-07-10T09:07:15;102506.19;;;22.81;44.57
70976;BME280;58635;51.198;6.010;2022-07-10T09:09:55;102501.88;;;22.86;44.82
70976;BME280;58635;51.198;6.010;2022-07-10T09:12:22;102501.47;;;22.83;44.78
70976;BME280;58635;51.198;6.010;2022-07-10T09:14:48;102493.56;;;22.83;44.94
70976;BME280;58635;51.198;6.010;2022-07-10T09:17:15;102498.44;;;22.86;44.55
70976;BME280;58635;51.198;6.010;2022-07-10T09:19:41;102494.41;;;22.83;44.85
70976;BME280;58635;51.198;6.010;2022-07-10T09:22:08;102494.53;;;22.76;44.95
70976;BME280;58635;51.198;6.010;2022-07-10T09:24:44;102491.06;;;22.76;45.11
70976;BME280;58635;51.198;6.010;2022-07-10T09:27:12;102499.31;;;22.80;44.96
70976;BME280;58635;51.198;6.010;2022-07-10T09:32:11;102495.19;;;22.84;45.15
70976;BME280;58635;51.198;6.010;2022-07-10T09:34:45;102497.63;;;22.85;45.04
70976;BME280;58635;51.198;6.010;2022-07-10T09:37:27;102489.13;;;22.83;45.09
70976;BME280;58635;51.198;6.010;2022-07-10T09:40:01;102495.44;;;22.70;45.34
70976;BME280;58635;51.198;6.010;2022-07-10T09:42:31;102491.66;;;22.66;45.79
70976;BME280;58635;51.198;6.010;2022-07-10T09:45:14;102487.91;;;22.62;45.95
70976;BME280;58635;51.198;6.010;2022-07-10T09:50:29;102479.16;;;22.85;45.58
70976;BME280;58635;51.198;6.010;2022-07-10T09:52:59;102476.09;;;23.05;45.26
70976;BME280;58635;51.198;6.010;2022-07-10T09:55:27;102470.16;;;23.26;44.82
70976;BME280;58635;51.198;6.010;2022-07-10T09:57:59;102477.16;;;23.49;44.40
70976;BME280;58635;51.198;6.010;2022-07-10T10:00:30;102477.44;;;23.65;44.10
70976;BME280;58635;51.198;6.010;2022-07-10T10:02:58;102480.78;;;23.77;43.68
70976;BME280;58635;51.198;6.010;2022-07-10T10:05:32;102477.09;;;23.78;43.62
70976;BME280;58635;51.198;6.010;2022-07-10T10:08:22;102483.38;;;23.72;43.44
70976;BME280;58635;51.198;6.010;2022-07-10T10:10:50;102477.28;;;23.71;43.68
70976;BME280;58635;51.198;6.010;2022-07-10T10:13:21;102482.81;;;23.70;44.00
70976;BME280;58635;51.198;6.010;2022-07-10T10:15:51;102479.03;;;23.66;43.94
70976;BME280;58635;51.198;6.010;2022-07-10T10:18:18;102485.34;;;23.65;44.00
70976;BME280;58635;51.198;6.010;2022-07-10T10:20:45;102483.09;;;23.56;44.28
70976;BME280;58635;51.198;6.010;2022-07-10T10:23:19;102476.91;;;23.51;44.63
70976;BME280;58635;51.198;6.010;2022-07-10T10:25:51;102481.16;;;23.52;44.50
70976;BME280;58635;51.198;6.010;2022-07-10T10:28:17;102476.19;;;23.55;44.05
70976;BME280;58635;51.198;6.010;2022-07-10T10:30:49;102479.06;;;23.54;44.58
70976;BME280;58635;51.198;6.010;2022-07-10T10:33:44;102474.97;;;23.58;44.08
70976;BME280;58635;51.198;6.010;2022-07-10T10:36:15;102464.06;;;23.71;44.33
70976;BME280;58635;51.198;6.010;2022-07-10T10:39:01;102471.03;;;23.94;43.93
70976;BME280;58635;51.198;6.010;2022-07-10T10:41:38;102465.56;;;24.17;43.20
70976;BME280;58635;51.198;6.010;2022-07-10T10:49:59;102456.59;;;24.62;42.31
70976;BME280;58635;51.198;6.010;2022-07-10T10:52:26;102458.53;;;24.89;42.26
70976;BME280;58635;51.198;6.010;2022-07-10T10:59:58;102439.22;;;25.79;40.37
70976;BME280;58635;51.198;6.010;2022-07-10T11:02:31;102441.06;;;25.79;40.52
70976;BME280;58635;51.198;6.010;2022-07-10T11:07:56;102445.00;;;25.44;40.72
70976;BME280;58635;51.198;6.010;2022-07-10T11:13:06;102437.19;;;25.22;41.23
70976;BME280;58635;51.198;6.010;2022-07-10T11:15:38;102443.28;;;25.23;41.47
70976;BME280;58635;51.198;6.010;2022-07-10T11:18:08;102434.03;;;25.25;40.97
70976;BME280;58635;51.198;6.010;2022-07-10T11:20:37;102438.03;;;25.33;41.06
70976;BME280;58635;51.198;6.010;2022-07-10T11:25:42;102432.50;;;25.34;40.80
70976;BME280;58635;51.198;6.010;2022-07-10T11:28:13;102436.19;;;25.33;40.51
70976;BME280;58635;51.198;6.010;2022-07-10T11:30:51;102422.13;;;25.28;40.70
70976;BME280;58635;51.198;6.010;2022-07-10T11:33:18;102414.16;;;25.28;41.09
70976;BME280;58635;51.198;6.010;2022-07-10T11:35:47;102420.28;;;25.33;40.58
70976;BME280;58635;51.198;6.010;2022-07-10T11:38:18;102422.75;;;25.40;40.73
70976;BME280;58635;51.198;6.010;2022-07-10T11:40:44;102415.59;;;25.41;40.45
70976;BME280;58635;51.198;6.010;2022-07-10T11:43:09;102420.94;;;25.46;40.23
70976;BME280;58635;51.198;6.010;2022-07-10T11:45:39;102416.75;;;25.55;40.20
70976;BME280;58635;51.198;6.010;2022-07-10T11:48:05;102408.06;;;25.59;40.07
70976;BME280;58635;51.198;6.010;2022-07-10T11:50:37;102409.16;;;25.69;39.77
70976;BME280;58635;51.198;6.010;2022-07-10T11:53:04;102407.38;;;25.74;39.77
70976;BME280;58635;51.198;6.010;2022-07-10T11:55:30;102403.94;;;25.74;39.69
70976;BME280;58635;51.198;6.010;2022-07-10T11:57:57;102402.63;;;25.76;39.98
70976;BME280;58635;51.198;6.010;2022-07-10T12:00:26;102397.13;;;25.88;39.82
70976;BME280;58635;51.198;6.010;2022-07-10T12:02:52;102395.69;;;26.17;39.55
70976;BME280;58635;51.198;6.010;2022-07-10T12:05:31;102399.56;;;26.57;38.84
70976;BME280;58635;51.198;6.010;2022-07-10T12:07:57;102398.31;;;27.00;37.94
70976;BME280;58635;51.198;6.010;2022-07-10T12:10:26;102395.41;;;27.48;37.42
70976;BME280;58635;51.198;6.010;2022-07-10T12:12:51;102389.78;;;27.70;36.95
70976;BME280;58635;51.198;6.010;2022-07-10T12:15:38;102399.84;;;27.93;36.58
70976;BME280;58635;51.198;6.010;2022-07-10T12:18:05;102398.13;;;28.22;36.30
70976;BME280;58635;51.198;6.010;2022-07-10T12:20:31;102394.03;;;28.50;35.56
70976;BME280;58635;51.198;6.010;2022-07-10T12:22:57;102393.16;;;28.65;35.13
70976;BME280;58635;51.198;6.010;2022-07-10T12:25:23;102406.16;;;28.72;35.01
70976;BME280;58635;51.198;6.010;2022-07-10T12:27:55;102397.94;;;28.63;34.94
70976;BME280;58635;51.198;6.010;2022-07-10T12:30:20;102395.34;;;28.53;34.90
70976;BME280;58635;51.198;6.010;2022-07-10T12:32:46;102384.44;;;28.49;34.69
70976;BME280;58635;51.198;6.010;2022-07-10T12:35:11;102383.97;;;28.42;34.83
70976;BME280;58635;51.198;6.010;2022-07-10T12:37:49;102384.56;;;28.29;35.08
70976;BME280;58635;51.198;6.010;2022-07-10T12:40:33;102393.63;;;28.23;35.28
70976;BME280;58635;51.198;6.010;2022-07-10T12:43:05;102397.63;;;28.20;35.52
70976;BME280;58635;51.198;6.010;2022-07-10T12:45:31;102390.75;;;28.09;35.71
70976;BME280;58635;51.198;6.010;2022-07-10T12:47:56;102389.16;;;28.08;35.68
70976;BME280;58635;51.198;6.010;2022-07-10T12:50:23;102396.56;;;28.16;35.56
70976;BME280;58635;51.198;6.010;2022-07-10T12:52:49;102390.44;;;28.16;35.81
70976;BME280;58635;51.198;6.010;2022-07-10T12:55:18;102396.06;;;28.04;35.69
70976;BME280;58635;51.198;6.010;2022-07-10T12:57:54;102392.94;;;27.82;35.49
70976;BME280;58635;51.198;6.010;2022-07-10T13:00:30;102392.72;;;27.63;36.26
70976;BME280;58635;51.198;6.010;2022-07-10T13:03:12;102392.47;;;27.54;36.61
70976;BME280;58635;51.198;6.010;2022-07-10T13:05:43;102394.34;;;27.49;36.66
70976;BME280;58635;51.198;6.010;2022-07-10T13:08:21;102383.72;;;27.38;36.77
70976;BME280;58635;51.198;6.010;2022-07-10T13:10:56;102387.72;;;27.21;36.89
70976;BME280;58635;51.198;6.010;2022-07-10T13:13:24;102389.31;;;27.06;37.46
70976;BME280;58635;51.198;6.010;2022-07-10T13:15:49;102373.63;;;26.90;37.47